Schedule Details


Flight Number: CTN531
Departure: Pulkovo (ULLI) at 18:50
Arrival: Franjo Tudman (LDZA) at 20:45
Route: TURAL?B141?RANVA?P863?RESMO?M155?VALGA?M985?BOKSU?M857?SUW?M985?EVINA?N744?TUSIN?M984?MIKOV?DCT?WGM?DCT?PETOV

Weather Information
ULLI 171130Z 17003MPS CAVOK 13/10 Q1021 R88/090060 NOSIG
LDZA 171130Z VRB02KT CAVOK 20/12 Q1020 NOSIG
Schedule Frequency

Route Map